createdAt,value
2024-04-30T00:01:53.830Z,1.58
2024-04-30T00:04:21.333Z,1.50
2024-04-30T00:06:48.917Z,1.60
2024-04-30T00:09:16.403Z,3.10
2024-04-30T00:11:44.731Z,1.60
2024-04-30T00:14:12.127Z,1.67
2024-04-30T00:16:45.916Z,1.60
2024-04-30T00:19:13.394Z,1.50
2024-04-30T00:21:45.366Z,1.55
2024-04-30T00:24:12.864Z,1.95
2024-04-30T00:26:40.419Z,1.67
2024-04-30T00:29:07.925Z,2.10
2024-04-30T00:31:35.296Z,1.50
2024-04-30T00:34:02.912Z,1.70
2024-04-30T00:36:30.333Z,1.60
2024-04-30T00:38:57.742Z,1.58
2024-04-30T00:41:25.064Z,1.40
2024-04-30T00:43:52.397Z,1.92
2024-04-30T00:46:19.803Z,1.50
2024-04-30T00:48:47.466Z,2.10
2024-04-30T00:51:15.398Z,1.70
2024-04-30T00:53:43.018Z,1.73
2024-04-30T00:56:11.025Z,1.45
2024-04-30T00:58:38.716Z,1.70
2024-04-30T01:01:09.005Z,1.80
2024-04-30T01:03:36.574Z,1.58
2024-04-30T01:06:04.245Z,1.40
2024-04-30T01:08:31.744Z,1.65
2024-04-30T01:11:00.357Z,1.80
2024-04-30T01:13:36.582Z,1.95
2024-04-30T01:16:04.610Z,1.77
2024-04-30T01:18:32.042Z,1.73
2024-04-30T01:20:59.567Z,1.92
2024-04-30T01:23:26.913Z,1.83
2024-04-30T01:25:54.519Z,1.50
2024-04-30T01:28:21.955Z,1.60
2024-04-30T01:30:50.109Z,1.70
2024-04-30T01:33:17.724Z,1.43
2024-04-30T01:35:45.554Z,1.90
2024-04-30T01:38:13.134Z,1.97
2024-04-30T01:40:40.646Z,1.73
2024-04-30T01:43:08.404Z,1.80
2024-04-30T01:45:36.180Z,1.90
2024-04-30T01:48:03.683Z,1.75
2024-04-30T01:50:31.080Z,1.70
2024-04-30T01:52:58.397Z,1.80
2024-04-30T01:55:25.963Z,1.55
2024-04-30T01:57:53.280Z,1.50
2024-04-30T02:00:20.774Z,1.80
2024-04-30T02:02:48.210Z,1.85
2024-04-30T02:05:21.138Z,1.73
2024-04-30T02:07:52.687Z,1.70
2024-04-30T02:10:20.122Z,1.85
2024-04-30T02:12:47.674Z,1.85
2024-04-30T02:15:15.160Z,2.13
2024-04-30T02:17:42.779Z,2.00
2024-04-30T02:20:10.615Z,2.13
2024-04-30T02:22:38.184Z,2.25
2024-04-30T02:25:05.908Z,3.00
2024-04-30T02:27:33.703Z,2.13
2024-04-30T02:30:01.151Z,2.30
2024-04-30T02:32:47.190Z,2.15
2024-04-30T02:35:14.726Z,1.80
2024-04-30T02:37:42.077Z,1.90
2024-04-30T02:40:09.904Z,1.60
2024-04-30T02:42:37.363Z,2.10
2024-04-30T02:45:05.101Z,2.00
2024-04-30T02:47:32.554Z,2.00
2024-04-30T02:50:00.120Z,1.83
2024-04-30T02:52:27.601Z,1.83
2024-04-30T02:54:54.979Z,1.50
2024-04-30T02:57:22.356Z,1.83
2024-04-30T02:59:49.708Z,2.20
2024-04-30T03:02:17.035Z,2.47
2024-04-30T03:04:45.829Z,2.45
2024-04-30T03:07:13.352Z,2.92
2024-04-30T03:09:40.753Z,3.22
2024-04-30T03:12:08.217Z,3.42
2024-04-30T03:14:35.670Z,3.80
2024-04-30T03:17:03.087Z,3.40
2024-04-30T03:19:30.682Z,4.65
2024-04-30T03:21:58.171Z,3.50
2024-04-30T03:24:25.682Z,3.40
2024-04-30T03:26:53.016Z,3.15
2024-04-30T03:29:20.421Z,3.70
2024-04-30T03:31:47.790Z,3.47
2024-04-30T03:34:15.743Z,3.20
2024-04-30T03:36:43.235Z,3.13
2024-04-30T03:39:12.715Z,3.40
2024-04-30T03:41:40.308Z,3.45
2024-04-30T03:44:08.066Z,3.80
2024-04-30T03:46:35.483Z,4.03
2024-04-30T03:49:03.055Z,3.38
2024-04-30T03:51:30.503Z,3.33
2024-04-30T03:53:57.919Z,3.80
2024-04-30T03:56:25.442Z,4.30
2024-04-30T03:58:52.955Z,4.20
2024-04-30T04:01:20.310Z,3.55
2024-04-30T04:03:47.757Z,4.00
2024-04-30T04:06:17.621Z,3.70
2024-04-30T04:08:45.475Z,3.88
2024-04-30T04:11:31.298Z,4.38
2024-04-30T04:14:24.915Z,3.67
2024-04-30T04:16:52.300Z,3.17
2024-04-30T04:19:19.698Z,2.77
2024-04-30T04:21:47.060Z,2.88
2024-04-30T04:24:14.508Z,2.35
2024-04-30T04:26:42.026Z,2.42
2024-04-30T04:29:09.361Z,2.83
2024-04-30T04:31:36.875Z,2.60
2024-04-30T04:34:04.373Z,2.85
2024-04-30T04:36:31.798Z,3.00
2024-04-30T04:38:59.675Z,2.90
2024-04-30T04:41:27.171Z,2.40
2024-04-30T04:43:54.512Z,2.63
2024-04-30T04:46:22.082Z,2.70
2024-04-30T04:48:49.558Z,2.65
2024-04-30T04:51:17.131Z,2.60
2024-04-30T04:53:44.466Z,2.70
2024-04-30T04:56:11.880Z,3.03
2024-04-30T04:58:39.221Z,2.05
2024-04-30T05:01:08.854Z,2.90
2024-04-30T05:03:38.655Z,2.72
2024-04-30T05:06:06.366Z,2.70
2024-04-30T05:08:33.864Z,3.15
2024-04-30T05:11:01.206Z,2.97
2024-04-30T05:13:31.879Z,2.58
2024-04-30T05:15:59.476Z,3.42
2024-04-30T05:18:26.895Z,2.63
2024-04-30T05:20:54.297Z,2.42
2024-04-30T05:23:21.799Z,2.78
2024-04-30T05:25:49.209Z,2.63
2024-04-30T05:28:16.698Z,2.20
2024-04-30T05:30:44.183Z,2.92
2024-04-30T05:33:13.602Z,2.88
2024-04-30T05:35:41.435Z,2.40
2024-04-30T05:38:08.799Z,2.30
2024-04-30T05:40:36.333Z,1.95
2024-04-30T05:43:12.261Z,3.00
2024-04-30T05:45:39.951Z,2.60
2024-04-30T05:48:07.718Z,2.15
2024-04-30T05:50:35.422Z,2.05
2024-04-30T05:53:08.110Z,1.97
2024-04-30T05:55:35.894Z,2.27
2024-04-30T05:58:04.459Z,2.10
2024-04-30T06:00:32.513Z,2.50
2024-04-30T06:03:03.798Z,2.50
2024-04-30T06:05:32.125Z,2.50
2024-04-30T06:07:59.642Z,2.30
2024-04-30T06:10:27.287Z,2.58
2024-04-30T06:12:54.792Z,2.60
2024-04-30T06:15:22.347Z,2.00
2024-04-30T06:17:50.463Z,1.90
2024-04-30T06:20:18.632Z,2.50
2024-04-30T06:22:46.439Z,2.00
2024-04-30T06:25:14.213Z,2.10
2024-04-30T06:27:51.035Z,1.75
2024-04-30T06:30:18.625Z,1.77
2024-04-30T06:32:46.294Z,1.90
2024-04-30T06:35:14.121Z,1.75
2024-04-30T06:37:41.846Z,1.98
2024-04-30T06:40:09.995Z,1.67
2024-04-30T06:42:37.474Z,1.92
2024-04-30T06:45:05.493Z,1.70
2024-04-30T06:47:33.180Z,2.53
2024-04-30T06:50:03.194Z,2.37
2024-04-30T06:52:31.039Z,3.00
2024-04-30T06:54:58.654Z,1.73
2024-04-30T06:57:29.476Z,2.00
2024-04-30T06:59:57.344Z,1.83
2024-04-30T07:02:27.065Z,2.00
2024-04-30T07:04:54.638Z,2.13
2024-04-30T07:07:22.089Z,1.90
2024-04-30T07:09:49.579Z,1.90
2024-04-30T07:12:17.002Z,2.30
2024-04-30T07:14:44.463Z,2.20
2024-04-30T07:17:11.906Z,1.90
2024-04-30T07:19:41.366Z,2.30
2024-04-30T07:22:16.075Z,2.50
2024-04-30T07:24:44.037Z,2.00
2024-04-30T07:27:14.510Z,1.48
2024-04-30T07:29:42.325Z,1.50
2024-04-30T07:32:09.857Z,1.80
2024-04-30T07:34:37.555Z,2.03
2024-04-30T07:37:07.827Z,2.03
2024-04-30T07:39:35.353Z,1.92
2024-04-30T07:42:05.238Z,2.63
2024-04-30T07:44:34.038Z,1.90
2024-04-30T07:47:01.510Z,1.70
2024-04-30T07:49:29.087Z,1.90
2024-04-30T07:56:51.131Z,1.50
2024-04-30T07:59:18.805Z,1.57
2024-04-30T08:01:47.280Z,1.90
2024-04-30T08:04:14.972Z,2.53
2024-04-30T08:06:42.555Z,1.60
2024-04-30T08:09:12.095Z,1.50
2024-04-30T08:11:39.592Z,2.50
2024-04-30T08:14:07.138Z,2.00
2024-04-30T08:16:34.687Z,1.57
2024-04-30T08:19:02.456Z,1.60
2024-04-30T08:21:31.155Z,1.80
2024-04-30T08:24:01.520Z,1.70
2024-04-30T08:26:29.028Z,2.20
2024-04-30T08:28:56.559Z,2.20
2024-04-30T08:31:24.590Z,2.25
2024-04-30T08:33:52.278Z,1.40
2024-04-30T08:36:26.955Z,1.40
2024-04-30T08:38:57.033Z,1.30
2024-04-30T08:41:26.160Z,1.50
2024-04-30T08:43:54.173Z,1.58
2024-04-30T08:46:21.818Z,1.80
2024-04-30T08:48:51.193Z,1.70
2024-04-30T08:51:18.695Z,1.50
2024-04-30T08:53:47.855Z,1.83
2024-04-30T08:56:16.009Z,2.00
2024-04-30T08:58:43.567Z,2.05
2024-04-30T09:01:11.729Z,1.70
2024-04-30T09:03:43.879Z,1.80
2024-04-30T09:06:12.153Z,2.35
2024-04-30T09:08:39.614Z,1.67
2024-04-30T09:11:07.373Z,1.58
2024-04-30T09:13:36.196Z,2.40
2024-04-30T09:16:05.927Z,1.75
2024-04-30T09:18:33.768Z,2.17
2024-04-30T09:21:11.881Z,1.95
2024-04-30T09:23:44.582Z,1.83
2024-04-30T09:58:47.203Z,2.65
2024-04-30T10:01:18.820Z,1.60
2024-04-30T10:03:47.260Z,1.45
2024-04-30T10:06:18.305Z,1.92
2024-04-30T10:08:47.146Z,1.20
2024-04-30T10:11:14.695Z,1.60
2024-04-30T10:14:08.375Z,1.63
2024-04-30T10:16:36.944Z,1.20
2024-04-30T10:19:07.162Z,1.60
2024-04-30T10:21:38.833Z,2.05
2024-04-30T10:24:22.093Z,1.67
2024-04-30T10:39:27.347Z,1.05
2024-04-30T10:41:55.112Z,1.50
2024-04-30T10:44:23.423Z,1.25
2024-04-30T10:46:51.233Z,3.00
2024-04-30T10:51:50.095Z,1.10
2024-04-30T10:54:18.100Z,1.60
2024-04-30T10:56:46.967Z,1.33
2024-04-30T10:59:14.482Z,1.35
2024-04-30T11:01:42.414Z,1.30
2024-04-30T11:04:13.694Z,1.67
2024-04-30T11:06:49.702Z,2.20
2024-04-30T11:09:18.164Z,1.10
2024-04-30T11:11:50.086Z,1.52
2024-04-30T11:14:24.873Z,1.35
2024-04-30T11:16:55.817Z,1.77
2024-04-30T11:19:24.237Z,1.17
2024-04-30T11:21:54.146Z,1.30
2024-04-30T11:24:21.957Z,1.75
2024-04-30T11:26:50.864Z,1.10
2024-04-30T11:31:53.535Z,1.80
2024-04-30T11:34:21.324Z,1.63
2024-04-30T11:36:48.982Z,1.20
2024-04-30T11:39:16.768Z,2.05
2024-04-30T11:59:09.256Z,1.50
2024-04-30T12:01:36.694Z,1.63
2024-04-30T12:04:04.938Z,1.63
2024-04-30T12:06:35.849Z,1.58
2024-04-30T12:09:05.592Z,1.40
2024-04-30T12:14:00.788Z,1.40
2024-04-30T12:16:28.279Z,1.40
2024-04-30T12:19:00.483Z,1.30
2024-04-30T12:21:27.999Z,1.75
2024-04-30T12:23:55.830Z,1.63
2024-04-30T12:26:24.346Z,2.20
2024-04-30T12:28:51.755Z,2.13
2024-04-30T12:31:19.338Z,1.55
2024-04-30T12:33:47.114Z,1.52
2024-04-30T12:36:15.669Z,1.27
2024-04-30T12:38:44.093Z,1.48
2024-04-30T12:41:12.075Z,1.40
2024-04-30T12:43:40.261Z,2.22
2024-04-30T12:46:08.554Z,1.60
2024-04-30T12:48:36.299Z,1.77
2024-04-30T12:51:04.137Z,1.80
2024-04-30T12:53:31.717Z,1.77
2024-04-30T12:55:59.266Z,1.30
2024-04-30T12:58:26.842Z,1.35
2024-04-30T13:00:55.101Z,1.80
2024-04-30T13:03:22.906Z,1.50
2024-04-30T13:05:51.515Z,1.63
2024-04-30T13:08:22.548Z,2.22
2024-04-30T18:24:26.683Z,3.40
2024-04-30T18:26:56.571Z,3.25
2024-04-30T18:29:23.988Z,4.00
2024-04-30T18:31:52.653Z,5.57
2024-04-30T18:34:20.354Z,5.20
2024-04-30T18:36:47.980Z,6.93
2024-04-30T18:39:16.398Z,6.78
2024-04-30T18:41:45.378Z,8.65
2024-04-30T18:44:13.094Z,8.23
2024-04-30T18:46:40.744Z,8.07
2024-04-30T18:49:10.358Z,6.43
2024-04-30T18:51:41.882Z,5.85
2024-04-30T18:54:09.858Z,5.90
2024-04-30T18:56:44.028Z,6.70
2024-04-30T18:59:11.472Z,7.00
2024-04-30T19:01:39.086Z,5.35
2024-04-30T19:04:07.056Z,4.40
2024-04-30T19:06:34.592Z,3.90
2024-04-30T19:09:02.822Z,3.63
2024-04-30T19:11:30.323Z,4.00
2024-04-30T19:13:57.772Z,4.60
2024-04-30T19:16:25.175Z,3.55
2024-04-30T19:18:52.683Z,3.97
2024-04-30T19:21:20.657Z,3.57
2024-04-30T19:23:48.038Z,4.18
2024-04-30T19:26:17.516Z,3.80
2024-04-30T19:28:45.049Z,4.63
2024-04-30T19:31:16.921Z,3.85
2024-04-30T19:33:44.422Z,4.30
2024-04-30T19:36:24.918Z,4.68
2024-04-30T19:38:52.360Z,4.65
2024-04-30T19:41:19.991Z,4.95
2024-04-30T19:43:48.547Z,5.43
2024-04-30T19:46:21.108Z,5.72
2024-04-30T19:48:51.824Z,5.75
2024-04-30T19:51:23.405Z,5.40
2024-04-30T19:53:53.277Z,5.95
2024-04-30T19:56:21.086Z,6.05
2024-04-30T19:58:56.951Z,6.50
2024-04-30T20:01:29.321Z,7.65
2024-04-30T20:03:58.705Z,8.27
2024-04-30T20:06:26.824Z,8.80
2024-04-30T20:08:54.315Z,8.90
2024-04-30T20:11:25.555Z,8.73
2024-04-30T20:13:54.278Z,7.43
2024-04-30T20:16:24.461Z,6.97
2024-04-30T20:18:52.403Z,6.47
2024-04-30T20:21:20.040Z,7.15
2024-04-30T20:23:47.401Z,8.48
2024-04-30T20:26:15.144Z,7.22
2024-04-30T20:28:42.701Z,6.50
2024-04-30T20:31:10.166Z,7.10
2024-04-30T20:33:40.409Z,7.45
2024-04-30T20:36:15.502Z,7.45
2024-04-30T20:38:42.882Z,6.10
2024-04-30T20:41:11.484Z,6.25
2024-04-30T20:43:38.909Z,5.77
2024-04-30T20:46:06.586Z,5.50
2024-04-30T20:48:34.137Z,5.13
2024-04-30T20:51:04.243Z,5.50
2024-04-30T20:53:31.728Z,4.80
2024-04-30T20:55:59.194Z,5.57
2024-04-30T20:58:26.613Z,5.47
2024-04-30T21:00:54.014Z,5.83
2024-04-30T21:03:21.614Z,5.00
2024-04-30T21:05:49.023Z,5.47
2024-04-30T21:08:23.973Z,4.90
2024-04-30T21:10:54.438Z,4.23
2024-04-30T21:13:21.804Z,4.73
2024-04-30T21:15:49.377Z,4.50
2024-04-30T21:18:16.938Z,4.67
2024-04-30T21:20:44.543Z,5.70
2024-04-30T21:23:12.133Z,5.83
2024-04-30T21:25:39.562Z,5.60
2024-04-30T21:28:06.954Z,6.20
2024-04-30T21:30:34.480Z,5.90
2024-04-30T21:33:04.435Z,6.70
2024-04-30T21:35:32.316Z,6.95
2024-04-30T21:37:59.898Z,8.23
2024-04-30T21:40:27.361Z,7.85
2024-04-30T21:42:54.917Z,8.32
2024-04-30T21:45:22.475Z,9.20
2024-04-30T21:47:49.944Z,8.50
2024-04-30T21:50:19.565Z,9.13
2024-04-30T21:52:47.204Z,8.73
2024-04-30T21:55:14.688Z,8.27
2024-04-30T21:57:42.244Z,9.63
2024-04-30T22:00:14.955Z,9.18
2024-04-30T22:02:42.487Z,9.32
2024-04-30T22:05:10.038Z,9.82
2024-04-30T22:07:37.498Z,9.98
2024-04-30T22:10:05.342Z,10.98
2024-04-30T22:12:33.111Z,12.20
2024-04-30T22:15:00.622Z,11.20
2024-04-30T22:17:28.106Z,11.38
2024-04-30T22:19:58.225Z,11.57
2024-04-30T22:22:25.551Z,11.43
2024-04-30T22:24:52.949Z,11.93
2024-04-30T22:27:21.508Z,10.88
2024-04-30T22:29:52.585Z,13.25
2024-04-30T22:32:22.367Z,12.70
2024-04-30T22:34:49.760Z,11.02
2024-04-30T22:37:17.430Z,11.80
2024-04-30T22:39:44.769Z,11.13
2024-04-30T22:42:12.225Z,14.55
2024-04-30T22:44:39.641Z,11.63
2024-04-30T22:47:07.271Z,11.50
2024-04-30T22:49:34.612Z,11.77
2024-04-30T22:52:02.817Z,11.35
2024-04-30T22:54:30.159Z,10.80
2024-04-30T22:56:57.623Z,11.40
2024-04-30T22:59:25.189Z,12.68
2024-04-30T23:01:52.799Z,12.00
2024-04-30T23:04:20.414Z,13.18
2024-04-30T23:06:47.893Z,12.05
2024-04-30T23:09:15.190Z,11.48
2024-04-30T23:11:42.646Z,12.68
2024-04-30T23:14:10.017Z,13.02
2024-04-30T23:16:37.503Z,12.98
2024-04-30T23:19:05.036Z,12.18
2024-04-30T23:21:34.211Z,12.10
2024-04-30T23:24:01.514Z,12.57
2024-04-30T23:26:29.023Z,12.07
2024-04-30T23:28:56.815Z,13.25
2024-04-30T23:31:24.298Z,14.02
2024-04-30T23:33:51.881Z,14.48
2024-04-30T23:36:19.489Z,14.77
2024-04-30T23:38:46.803Z,15.17
2024-04-30T23:41:14.186Z,13.73
2024-04-30T23:43:41.573Z,13.65
2024-04-30T23:46:09.053Z,14.00
2024-04-30T23:48:36.445Z,15.07
2024-04-30T23:51:03.941Z,13.30
2024-04-30T23:53:31.350Z,13.75
2024-04-30T23:55:58.746Z,13.73
2024-04-30T23:58:26.062Z,14.27
